Time;durP1;ratioP1;P1;durP2;ratioP2;P2;SDS_P1;SDS_P2;PMS_P1;PMS_P2;Temp;Humidity;BMP_temperature;BMP_pressure;BME280_temperature;BME280_humidity;BME280_pressure;Samples;Min_cycle;Max_cycle;Signal;HPM_P1;HPM_P2
2021/12/20 00:00:42;;;;;;;25.50;14.60;;;0.90;99.90;;;;;;4956966;28;20111;-79
2021/12/20 00:03:07;;;;;;;28.10;14.40;;;0.90;99.90;;;;;;4961073;28;20089;-79
2021/12/20 00:05:33;;;;;;;26.50;14.63;;;0.90;99.90;;;;;;4962708;28;20484;-79
2021/12/20 00:07:59;;;;;;;25.70;15.53;;;0.90;99.90;;;;;;4957980;28;20448;-79
2021/12/20 00:10:24;;;;;;;26.30;15.87;;;0.90;99.90;;;;;;5027785;28;20031;-79
2021/12/20 00:12:50;;;;;;;27.70;16.07;;;1.00;99.90;;;;;;4961473;28;20089;-79
2021/12/20 00:15:17;;;;;;;27.77;15.83;;;0.90;99.90;;;;;;4961597;28;20108;-79
2021/12/20 00:17:43;;;;;;;29.83;15.90;;;0.90;99.90;;;;;;4961647;28;20027;-79
2021/12/20 00:20:09;;;;;;;27.00;15.70;;;0.90;99.90;;;;;;4965225;28;20378;-82
2021/12/20 00:22:35;;;;;;;26.83;15.67;;;0.90;99.90;;;;;;4966802;28;20054;-82
2021/12/20 00:25:01;;;;;;;27.03;15.60;;;0.90;99.90;;;;;;5027389;28;20054;-82
2021/12/20 00:27:26;;;;;;;25.30;15.33;;;0.90;99.90;;;;;;4960675;28;20384;-82
2021/12/20 00:29:52;;;;;;;26.37;15.40;;;0.90;99.90;;;;;;4960764;28;20031;-82
2021/12/20 00:32:18;;;;;;;23.33;14.33;;;0.90;99.90;;;;;;5026651;28;20030;-82
2021/12/20 00:34:45;;;;;;;25.47;15.07;;;0.90;99.90;;;;;;4960324;28;20360;-82
2021/12/20 00:42:41;;;;;;;26.13;15.20;;;1.00;99.90;;;;;;4963721;28;20037;-82
2021/12/20 00:45:08;;;;;;;28.43;16.17;;;1.00;99.90;;;;;;4961672;28;20118;-82
2021/12/20 00:47:34;;;;;;;28.30;16.20;;;1.00;99.90;;;;;;5029120;28;20022;-82
2021/12/20 00:49:59;;;;;;;27.00;15.23;;;0.90;99.90;;;;;;4962077;28;20034;-82
2021/12/20 00:52:25;;;;;;;28.00;15.77;;;0.90;99.90;;;;;;5028590;28;20031;-82
2021/12/20 00:54:51;;;;;;;26.40;15.83;;;1.00;99.90;;;;;;4961506;28;20057;-82
2021/12/20 00:57:19;;;;;;;24.87;14.43;;;1.00;99.90;;;;;;4959824;28;20107;-82
2021/12/20 00:59:44;;;;;;;25.27;15.17;;;1.00;99.90;;;;;;4961018;28;20109;-82
2021/12/20 01:02:10;;;;;;;26.27;15.40;;;1.00;99.90;;;;;;4961194;28;20114;-82
2021/12/20 01:04:35;;;;;;;27.13;15.50;;;1.00;99.90;;;;;;4960308;28;20057;-82
2021/12/20 01:07:01;;;;;;;28.40;16.20;;;1.00;99.90;;;;;;4960478;28;20050;-82
2021/12/20 01:09:27;;;;;;;28.63;15.77;;;1.00;99.90;;;;;;4960248;28;20027;-80
2021/12/20 01:11:54;;;;;;;29.47;15.30;;;1.00;99.90;;;;;;5031565;28;20525;-80
2021/12/20 01:14:25;;;;;;;27.50;15.73;;;1.00;99.90;;;;;;4958323;28;20024;-80
2021/12/20 01:16:51;;;;;;;27.60;16.17;;;1.00;99.90;;;;;;4959612;28;20043;-80
2021/12/20 01:19:17;;;;;;;28.43;16.13;;;1.00;99.90;;;;;;4959577;28;20020;-80
2021/12/20 01:21:43;;;;;;;25.70;14.60;;;1.00;99.90;;;;;;4958738;28;20038;-80
2021/12/20 01:24:09;;;;;;;25.83;15.13;;;1.00;99.90;;;;;;4961232;28;20102;-80
2021/12/20 01:26:34;;;;;;;24.80;13.93;;;1.10;99.90;;;;;;4961654;28;20118;-80
2021/12/20 01:29:00;;;;;;;25.50;14.50;;;1.10;99.90;;;;;;4961074;28;20031;-80
2021/12/20 01:31:26;;;;;;;29.00;15.33;;;1.10;99.90;;;;;;5026573;28;20035;-80
2021/12/20 01:33:51;;;;;;;24.50;14.73;;;1.10;99.90;;;;;;4965999;28;20039;-80
2021/12/20 01:36:17;;;;;;;25.90;14.77;;;1.10;99.90;;;;;;4960941;28;20092;-80
2021/12/20 01:38:43;;;;;;;26.63;14.97;;;1.20;99.90;;;;;;4959535;28;20069;-80
2021/12/20 01:41:10;;;;;;;27.07;15.33;;;1.10;99.90;;;;;;4959610;28;20357;-80
2021/12/20 01:43:37;;;;;;;25.50;15.23;;;1.10;99.90;;;;;;4963335;28;20327;-80
2021/12/20 01:46:02;;;;;;;27.67;15.20;;;1.10;99.90;;;;;;4959108;28;20030;-80
2021/12/20 01:48:29;;;;;;;29.80;15.50;;;1.10;99.90;;;;;;4959635;28;20027;-80
2021/12/20 01:53:34;;;;;;;27.00;15.13;;;1.20;99.90;;;;;;4964682;28;20031;-80
2021/12/20 01:56:02;;;;;;;27.33;15.83;;;1.20;99.90;;;;;;5026501;28;20042;-80
2021/12/20 01:58:29;;;;;;;27.80;15.60;;;1.20;99.90;;;;;;4961064;28;20039;-80
2021/12/20 02:03:41;;;;;;;28.17;15.67;;;1.20;99.90;;;;;;4959519;28;20026;-80
2021/12/20 02:06:15;;;;;;;26.60;14.97;;;1.10;99.90;;;;;;4957829;28;20058;-80
2021/12/20 02:08:41;;;;;;;29.17;16.67;;;1.10;99.90;;;;;;4959397;28;20354;-80
2021/12/20 02:11:10;;;;;;;27.77;15.80;;;1.10;99.90;;;;;;4959563;28;20037;-80
2021/12/20 02:13:37;;;;;;;29.27;16.07;;;1.10;99.90;;;;;;4964572;28;20023;-80
2021/12/20 02:16:03;;;;;;;28.60;15.70;;;1.10;99.90;;;;;;4959611;28;20506;-80
2021/12/20 02:18:30;;;;;;;28.03;16.00;;;1.10;99.90;;;;;;4958757;28;20039;-80
2021/12/20 02:20:57;;;;;;;29.57;16.23;;;1.10;99.90;;;;;;4959330;28;20470;-80
2021/12/20 02:23:22;;;;;;;24.93;14.40;;;1.10;99.90;;;;;;5027713;28;20027;-80
2021/12/20 02:25:48;;;;;;;28.77;14.90;;;1.20;99.90;;;;;;5028229;28;20049;-80
2021/12/20 02:28:17;;;;;;;28.17;15.50;;;1.10;99.90;;;;;;4968977;28;20309;-80
2021/12/20 02:38:51;;;;;;;29.40;15.27;;;1.10;99.90;;;;;;4961069;28;20075;-80
2021/12/20 02:41:28;;;;;;;29.37;15.20;;;1.10;99.90;;;;;;4959657;28;20048;-80
2021/12/20 02:44:03;;;;;;;30.27;14.97;;;1.10;99.90;;;;;;4957203;28;20085;-80
2021/12/20 02:48:56;;;;;;;26.10;14.57;;;1.10;99.90;;;;;;4959779;28;20046;-80
2021/12/20 02:51:26;;;;;;;27.67;15.57;;;1.10;99.90;;;;;;4958587;28;20030;-80
2021/12/20 02:53:54;;;;;;;27.17;14.67;;;1.10;99.90;;;;;;5024644;28;20167;-80
2021/12/20 02:56:20;;;;;;;30.07;15.97;;;1.10;99.90;;;;;;4959314;28;20129;-80
2021/12/20 02:58:45;;;;;;;27.70;15.23;;;1.10;99.90;;;;;;5024762;28;20031;-80
2021/12/20 03:01:11;;;;;;;26.60;15.03;;;1.10;99.90;;;;;;4959591;28;20027;-80
2021/12/20 03:03:37;;;;;;;26.93;15.73;;;1.10;99.90;;;;;;4964239;28;20057;-80
2021/12/20 03:06:23;;;;;;;26.67;14.87;;;1.10;99.90;;;;;;4957194;28;20066;-80
2021/12/20 03:08:52;;;;;;;25.60;14.40;;;1.10;99.90;;;;;;4959372;28;20023;-80
2021/12/20 03:11:20;;;;;;;27.20;15.20;;;1.10;99.90;;;;;;4959829;28;20027;-80
2021/12/20 03:13:50;;;;;;;25.60;15.07;;;1.20;99.90;;;;;;5024122;28;20030;-80
2021/12/20 03:16:16;;;;;;;30.67;15.93;;;1.20;99.90;;;;;;4957366;28;20488;-80
2021/12/20 03:18:42;;;;;;;27.07;14.67;;;1.20;99.90;;;;;;4960405;28;20042;-80
2021/12/20 03:21:08;;;;;;;28.70;15.23;;;1.10;99.90;;;;;;4955165;28;20034;-80
2021/12/20 03:23:33;;;;;;;27.30;15.27;;;1.10;99.90;;;;;;4960404;28;20031;-80
2021/12/20 03:25:59;;;;;;;26.67;14.97;;;1.10;99.90;;;;;;4958183;28;20034;-80
2021/12/20 03:28:24;;;;;;;26.43;15.27;;;1.10;99.90;;;;;;4956818;28;20042;-80
2021/12/20 03:30:50;;;;;;;27.03;15.60;;;1.10;99.90;;;;;;4956686;28;20118;-76
2021/12/20 03:33:16;;;;;;;29.93;15.33;;;1.10;99.90;;;;;;4959261;28;20035;-76
2021/12/20 03:35:41;;;;;;;28.87;15.13;;;1.10;99.90;;;;;;4957855;28;20031;-77
2021/12/20 03:38:08;;;;;;;24.77;14.60;;;1.10;99.90;;;;;;4960336;28;20035;-76
2021/12/20 03:40:34;;;;;;;26.53;14.23;;;1.20;99.90;;;;;;4956508;28;20027;-80
2021/12/20 03:42:59;;;;;;;29.03;15.70;;;1.10;99.90;;;;;;4959984;28;20055;-80
2021/12/20 03:45:25;;;;;;;26.67;14.93;;;1.20;99.90;;;;;;4957071;28;20034;-80
2021/12/20 03:47:51;;;;;;;26.40;14.10;;;1.10;99.90;;;;;;5039646;28;20332;-80
2021/12/20 03:50:17;;;;;;;26.73;14.83;;;1.20;99.90;;;;;;4956456;28;20114;-80
2021/12/20 03:52:43;;;;;;;25.53;14.33;;;1.20;99.90;;;;;;4956203;28;20421;-77
2021/12/20 03:55:12;;;;;;;25.73;13.97;;;1.20;99.90;;;;;;4962293;28;20042;-77
2021/12/20 03:57:38;;;;;;;27.57;14.90;;;1.20;99.90;;;;;;4959870;28;20021;-81
2021/12/20 04:00:07;;;;;;;27.23;14.33;;;1.20;99.90;;;;;;4958107;28;20069;-81
2021/12/20 04:02:38;;;;;;;28.43;15.50;;;1.20;99.90;;;;;;5024495;28;20035;-81
2021/12/20 04:05:05;;;;;;;22.33;13.43;;;1.20;99.90;;;;;;4957574;28;20422;-81
2021/12/20 04:07:31;;;;;;;24.73;14.03;;;1.20;99.90;;;;;;4957988;28;20031;-81
2021/12/20 04:09:59;;;;;;;28.87;14.57;;;1.20;99.90;;;;;;4957543;28;20669;-80
2021/12/20 04:12:24;;;;;;;25.17;14.10;;;1.20;99.90;;;;;;4957372;28;20088;-81
2021/12/20 04:14:50;;;;;;;25.50;12.73;;;1.30;99.90;;;;;;5023824;28;20026;-80
2021/12/20 04:17:15;;;;;;;23.70;13.67;;;1.30;99.90;;;;;;5023784;28;20108;-81
2021/12/20 04:19:41;;;;;;;26.97;15.13;;;1.30;99.90;;;;;;4958475;28;20039;-80
2021/12/20 04:22:07;;;;;;;25.73;14.03;;;1.20;99.90;;;;;;4957528;28;20035;-80
2021/12/20 04:24:32;;;;;;;26.13;14.30;;;1.20;99.90;;;;;;5023652;28;20456;-81
2021/12/20 04:26:58;;;;;;;26.80;14.23;;;1.30;99.90;;;;;;4957224;28;20041;-81
2021/12/20 04:29:23;;;;;;;25.63;13.33;;;1.20;99.90;;;;;;4956791;28;20114;-81
2021/12/20 04:31:49;;;;;;;23.17;13.07;;;1.20;99.90;;;;;;4958303;28;20041;-81
2021/12/20 04:34:16;;;;;;;28.13;13.60;;;1.20;99.90;;;;;;4960011;28;20047;-81
2021/12/20 04:36:42;;;;;;;24.70;13.30;;;1.20;99.90;;;;;;4956751;28;20057;-81
2021/12/20 04:39:13;;;;;;;24.70;12.97;;;1.20;99.90;;;;;;4956232;28;20494;-81
2021/12/20 04:41:38;;;;;;;25.23;13.00;;;1.30;99.90;;;;;;5038511;28;20032;-81
2021/12/20 04:44:04;;;;;;;24.93;12.53;;;1.30;99.90;;;;;;4960513;28;20031;-81
2021/12/20 04:46:30;;;;;;;25.07;14.13;;;1.30;99.90;;;;;;4957246;28;20070;-81
2021/12/20 04:48:55;;;;;;;25.50;14.57;;;1.30;99.90;;;;;;4957086;28;20034;-81
2021/12/20 04:51:21;;;;;;;32.20;15.40;;;1.20;99.90;;;;;;5023299;28;20027;-81
2021/12/20 04:53:47;;;;;;;23.83;14.17;;;1.20;99.90;;;;;;4965248;28;20029;-81
2021/12/20 04:56:12;;;;;;;26.50;14.10;;;1.20;99.90;;;;;;4956614;28;20042;-81
2021/12/20 04:58:38;;;;;;;28.93;15.30;;;1.20;99.90;;;;;;4960989;28;20116;-81
2021/12/20 05:01:03;;;;;;;33.93;14.30;;;1.20;99.90;;;;;;4957995;28;20031;-81
2021/12/20 05:03:29;;;;;;;24.70;13.73;;;1.20;99.90;;;;;;4958117;28;20117;-81
2021/12/20 05:05:54;;;;;;;25.43;14.63;;;1.20;99.90;;;;;;5026609;28;20093;-80
2021/12/20 05:08:20;;;;;;;26.20;13.67;;;1.20;99.90;;;;;;4961684;28;20024;-80
2021/12/20 05:10:46;;;;;;;24.80;14.57;;;1.20;99.90;;;;;;4959152;28;20161;-80
2021/12/20 05:13:13;;;;;;;24.50;13.83;;;1.20;99.90;;;;;;4959409;28;20124;-80
2021/12/20 05:15:39;;;;;;;23.43;13.33;;;1.20;99.90;;;;;;4958413;28;20050;-80
2021/12/20 05:18:09;;;;;;;25.97;14.13;;;1.20;99.90;;;;;;4958893;28;20521;-81
2021/12/20 05:20:35;;;;;;;29.67;15.70;;;1.20;99.90;;;;;;4959609;28;20391;-80
2021/12/20 05:23:04;;;;;;;25.93;14.87;;;1.20;99.90;;;;;;4971633;28;20449;-77
2021/12/20 05:25:30;;;;;;;25.70;14.70;;;1.30;99.90;;;;;;4980540;28;20031;-78
2021/12/20 05:27:55;;;;;;;26.47;14.67;;;1.20;99.90;;;;;;4975598;28;20060;-78
2021/12/20 05:30:21;;;;;;;28.53;15.07;;;1.20;99.90;;;;;;5033175;28;20026;-78
2021/12/20 05:32:48;;;;;;;28.73;15.77;;;1.30;99.90;;;;;;4973487;28;20124;-78
2021/12/20 05:35:15;;;;;;;25.87;14.90;;;1.20;99.90;;;;;;4977898;28;20030;-78
2021/12/20 05:37:40;;;;;;;27.30;15.13;;;1.20;99.90;;;;;;4978275;28;20038;-78
2021/12/20 05:40:09;;;;;;;28.97;15.37;;;1.30;99.90;;;;;;4967242;28;20133;-78
2021/12/20 05:42:35;;;;;;;25.87;14.97;;;1.30;99.90;;;;;;4968532;28;20042;-78
2021/12/20 05:45:00;;;;;;;28.87;15.77;;;1.30;99.90;;;;;;4966677;28;20027;-78
2021/12/20 05:47:26;;;;;;;28.97;15.83;;;1.30;99.90;;;;;;4969950;28;20047;-78
2021/12/20 05:49:52;;;;;;;26.37;14.63;;;1.30;99.90;;;;;;5034507;28;20072;-78
2021/12/20 05:52:18;;;;;;;27.97;13.90;;;1.30;99.90;;;;;;4995465;28;20032;-79
2021/12/20 05:54:45;;;;;;;26.30;14.67;;;1.30;99.90;;;;;;4973339;28;20019;-78
2021/12/20 05:57:11;;;;;;;26.07;13.97;;;1.30;99.90;;;;;;4965526;28;20113;-79
2021/12/20 05:59:37;;;;;;;27.33;14.53;;;1.30;99.90;;;;;;4963721;28;20031;-79
2021/12/20 06:02:04;;;;;;;26.00;15.13;;;1.30;99.90;;;;;;4959874;28;20438;-79
2021/12/20 06:04:29;;;;;;;27.43;14.60;;;1.30;99.90;;;;;;4979393;28;20024;-78
2021/12/20 06:06:55;;;;;;;26.63;14.80;;;1.40;99.90;;;;;;4959925;28;20026;-78
2021/12/20 06:09:21;;;;;;;27.23;15.53;;;1.30;99.90;;;;;;4962694;28;20034;-78
2021/12/20 06:11:47;;;;;;;28.20;16.07;;;1.40;99.90;;;;;;4960560;28;20085;-81
2021/12/20 06:14:12;;;;;;;25.93;15.23;;;1.40;99.90;;;;;;5026513;28;20051;-78
2021/12/20 06:16:38;;;;;;;28.30;15.90;;;1.40;99.90;;;;;;4958237;28;20047;-77
2021/12/20 06:19:04;;;;;;;29.53;16.67;;;1.40;99.90;;;;;;4966714;28;20443;-77
2021/12/20 06:21:31;;;;;;;26.67;15.20;;;1.30;99.90;;;;;;5025488;28;20078;-77
2021/12/20 06:23:57;;;;;;;27.27;15.10;;;1.40;99.90;;;;;;4960751;28;20054;-77
2021/12/20 06:26:23;;;;;;;27.53;16.03;;;1.30;99.90;;;;;;4962236;28;20031;-77
2021/12/20 06:28:50;;;;;;;26.80;15.03;;;1.30;99.90;;;;;;4960508;28;20023;-77
2021/12/20 06:31:17;;;;;;;30.60;16.43;;;1.40;99.90;;;;;;4967171;28;20032;-77
2021/12/20 06:33:43;;;;;;;33.50;16.80;;;1.40;99.90;;;;;;4965605;28;20092;-77
2021/12/20 06:36:09;;;;;;;29.90;15.50;;;1.40;99.90;;;;;;4963156;28;20438;-77
2021/12/20 06:38:35;;;;;;;27.07;16.10;;;1.40;99.90;;;;;;4967488;28;20086;-77
2021/12/20 06:41:01;;;;;;;27.40;16.20;;;1.40;99.90;;;;;;5033454;28;20029;-77
2021/12/20 06:43:30;;;;;;;29.00;15.57;;;1.40;99.90;;;;;;4961770;28;20077;-77
2021/12/20 06:45:55;;;;;;;30.67;15.73;;;1.40;99.90;;;;;;4965876;28;20134;-77
2021/12/20 06:48:21;;;;;;;26.83;15.07;;;1.40;99.90;;;;;;5027659;28;20159;-77
2021/12/20 06:50:46;;;;;;;27.67;14.87;;;1.30;99.90;;;;;;4977595;28;20062;-77
2021/12/20 06:53:12;;;;;;;27.23;15.27;;;1.40;99.90;;;;;;4963154;28;20051;-80
2021/12/20 06:55:38;;;;;;;28.50;16.13;;;1.40;99.90;;;;;;4964255;28;20030;-77
2021/12/20 06:58:04;;;;;;;29.73;15.00;;;1.40;99.90;;;;;;5027751;28;20498;-77
2021/12/20 07:00:30;;;;;;;30.17;16.20;;;1.30;99.90;;;;;;4958959;28;20065;-77
2021/12/20 07:02:56;;;;;;;30.27;17.03;;;1.40;99.90;;;;;;4960320;28;20416;-77
2021/12/20 07:05:22;;;;;;;27.83;15.13;;;1.40;99.90;;;;;;4959494;28;20035;-77
2021/12/20 07:07:48;;;;;;;27.03;15.47;;;1.40;99.90;;;;;;4959749;28;20487;-77
2021/12/20 07:10:13;;;;;;;27.60;15.27;;;1.40;99.90;;;;;;4961475;28;20027;-77
2021/12/20 07:12:39;;;;;;;32.07;16.40;;;1.40;99.90;;;;;;4965559;28;20054;-77
2021/12/20 07:15:09;;;;;;;27.17;15.03;;;1.40;99.90;;;;;;4961487;28;20031;-77
2021/12/20 07:17:34;;;;;;;30.03;16.40;;;1.40;99.90;;;;;;5023583;28;20126;-77
2021/12/20 07:20:00;;;;;;;29.63;15.67;;;1.40;99.90;;;;;;4958549;28;20110;-76
2021/12/20 07:22:26;;;;;;;31.00;17.37;;;1.40;99.90;;;;;;4957658;28;20031;-77
2021/12/20 07:24:51;;;;;;;26.13;15.00;;;1.40;99.90;;;;;;4969594;28;20034;-77
2021/12/20 07:27:20;;;;;;;26.90;16.10;;;1.40;99.90;;;;;;5022400;28;20610;-77
2021/12/20 07:29:46;;;;;;;28.07;16.37;;;1.40;99.90;;;;;;4964935;28;20031;-77
2021/12/20 07:32:12;;;;;;;30.97;16.30;;;1.40;99.90;;;;;;5024573;28;20756;-77
2021/12/20 07:34:39;;;;;;;28.90;16.33;;;1.40;99.90;;;;;;4959836;28;20035;-77
2021/12/20 07:37:05;;;;;;;30.60;16.63;;;1.40;99.90;;;;;;4959096;28;20260;-77
2021/12/20 07:39:32;;;;;;;25.53;14.87;;;1.50;99.90;;;;;;4964476;28;20027;-77
2021/12/20 07:41:58;;;;;;;25.27;15.47;;;1.50;99.90;;;;;;4958123;28;20413;-77
2021/12/20 07:44:24;;;;;;;27.17;15.37;;;1.50;99.90;;;;;;4958335;28;20023;-77
2021/12/20 07:46:50;;;;;;;27.07;15.70;;;1.50;99.90;;;;;;4960773;28;20053;-77
2021/12/20 07:49:15;;;;;;;28.13;15.60;;;1.50;99.90;;;;;;5023486;28;20120;-78
2021/12/20 07:51:42;;;;;;;31.47;16.23;;;1.60;99.90;;;;;;5037066;28;20033;-77
2021/12/20 07:54:08;;;;;;;29.17;16.23;;;1.50;99.90;;;;;;4957827;28;20113;-77
2021/12/20 07:56:34;;;;;;;28.00;16.40;;;1.60;99.90;;;;;;5033215;28;20028;-77
2021/12/20 07:59:02;;;;;;;26.50;16.07;;;1.50;99.90;;;;;;4962128;28;20034;-77
2021/12/20 08:01:28;;;;;;;27.33;16.20;;;1.60;99.90;;;;;;5024017;28;20041;-77
2021/12/20 08:03:54;;;;;;;30.37;16.03;;;1.50;99.90;;;;;;4963217;28;20387;-77
2021/12/20 08:06:20;;;;;;;27.10;15.73;;;1.60;99.90;;;;;;4968300;28;20038;-77
2021/12/20 08:08:46;;;;;;;29.10;15.67;;;1.60;99.90;;;;;;4956704;28;20023;-73
2021/12/20 08:11:12;;;;;;;31.93;17.60;;;1.60;99.90;;;;;;4960870;28;20034;-78
2021/12/20 08:13:44;;;;;;;31.40;17.07;;;1.60;99.90;;;;;;4961027;28;20034;-79
2021/12/20 08:16:14;;;;;;;30.80;17.10;;;1.60;99.90;;;;;;4963288;28;20120;-78
2021/12/20 08:18:40;;;;;;;32.93;16.80;;;1.60;99.90;;;;;;4965113;28;20024;-78
2021/12/20 08:21:06;;;;;;;30.07;17.23;;;1.70;99.90;;;;;;4962958;28;20034;-78
2021/12/20 08:23:32;;;;;;;35.13;17.03;;;1.70;99.90;;;;;;4966119;28;20035;-79
2021/12/20 08:25:58;;;;;;;28.17;16.03;;;1.70;99.90;;;;;;5023884;28;20080;-79
2021/12/20 08:28:23;;;;;;;29.20;16.10;;;1.70;99.90;;;;;;4957397;28;20019;-79
2021/12/20 08:30:49;;;;;;;28.63;15.83;;;1.70;99.90;;;;;;5022474;28;20030;-78
2021/12/20 08:33:15;;;;;;;26.57;16.40;;;1.70;99.90;;;;;;5025218;28;20038;-78
2021/12/20 08:35:42;;;;;;;27.97;16.20;;;1.70;99.90;;;;;;4967635;28;20690;-79
2021/12/20 08:38:08;;;;;;;27.40;14.97;;;1.80;99.90;;;;;;4968129;28;20110;-78
2021/12/20 08:40:34;;;;;;;28.87;17.30;;;1.80;99.90;;;;;;4966721;28;20051;-78
2021/12/20 08:43:01;;;;;;;29.53;16.63;;;1.80;99.90;;;;;;4971366;28;20035;-78
2021/12/20 08:45:27;;;;;;;31.10;16.27;;;1.80;99.90;;;;;;4961643;28;20032;-79
2021/12/20 08:47:53;;;;;;;28.10;15.93;;;1.80;99.90;;;;;;4962530;28;20031;-78
2021/12/20 08:50:21;;;;;;;34.23;17.97;;;1.80;99.90;;;;;;4958889;28;20027;-78
2021/12/20 08:52:46;;;;;;;33.17;18.23;;;1.90;99.90;;;;;;4965058;28;20035;-78
2021/12/20 08:55:13;;;;;;;30.47;17.10;;;1.90;99.90;;;;;;4968024;28;20078;-78
2021/12/20 08:57:41;;;;;;;30.83;16.47;;;1.90;99.90;;;;;;4959365;28;20137;-78
2021/12/20 09:00:11;;;;;;;26.23;16.10;;;1.90;99.90;;;;;;4958478;28;20491;-77
2021/12/20 09:02:36;;;;;;;28.70;15.67;;;1.90;99.90;;;;;;4960594;28;20031;-76
2021/12/20 09:05:03;;;;;;;29.17;16.50;;;2.00;99.90;;;;;;4960201;28;20490;-76
2021/12/20 09:07:29;;;;;;;28.10;16.90;;;2.00;99.90;;;;;;4962623;28;20027;-77
2021/12/20 09:09:54;;;;;;;28.73;15.77;;;2.00;99.90;;;;;;4953965;28;20027;-77
2021/12/20 09:12:21;;;;;;;28.80;15.93;;;2.10;99.90;;;;;;4957077;28;20035;-77
2021/12/20 09:14:50;;;;;;;26.20;15.00;;;2.20;99.90;;;;;;4959189;28;20466;-77
2021/12/20 09:17:17;;;;;;;25.70;15.87;;;2.20;99.90;;;;;;4956228;28;20050;-77
2021/12/20 09:19:43;;;;;;;27.67;15.77;;;2.20;99.90;;;;;;4955281;28;20031;-77
2021/12/20 09:22:11;;;;;;;27.07;16.10;;;2.20;99.90;;;;;;4957668;28;20763;-77
2021/12/20 09:24:38;;;;;;;26.57;15.77;;;2.30;99.90;;;;;;4958961;28;20105;-77
2021/12/20 09:27:04;;;;;;;28.30;15.93;;;2.30;99.90;;;;;;4956776;28;20143;-77
2021/12/20 09:29:33;;;;;;;27.33;15.70;;;2.30;99.90;;;;;;4957612;28;20107;-77
2021/12/20 09:32:02;;;;;;;23.53;15.33;;;2.40;99.90;;;;;;4955960;28;20089;-77
2021/12/20 09:34:27;;;;;;;26.03;15.90;;;2.50;99.90;;;;;;4960435;28;20470;-77
2021/12/20 09:36:54;;;;;;;28.77;16.27;;;2.50;99.90;;;;;;4967184;28;20166;-77
2021/12/20 09:39:21;;;;;;;28.33;16.43;;;2.50;99.90;;;;;;4969464;28;20042;-77
2021/12/20 09:44:13;;;;;;;30.00;16.23;;;2.60;99.90;;;;;;4967561;28;20046;-77
2021/12/20 09:46:42;;;;;;;27.27;16.17;;;2.60;99.90;;;;;;4960896;28;20031;-77
2021/12/20 09:49:10;;;;;;;26.97;15.90;;;2.60;99.90;;;;;;4962403;28;20027;-81
2021/12/20 09:51:36;;;;;;;26.77;15.87;;;2.60;99.90;;;;;;5023886;28;20124;-81
2021/12/20 09:54:02;;;;;;;29.80;16.73;;;2.60;99.90;;;;;;4965038;28;20028;-81
2021/12/20 09:56:29;;;;;;;27.03;16.07;;;2.60;99.90;;;;;;4955995;28;20114;-81
2021/12/20 09:58:57;;;;;;;29.73;15.97;;;2.60;99.90;;;;;;5021620;28;20054;-81
2021/12/20 10:01:25;;;;;;;29.33;16.13;;;2.70;99.90;;;;;;4957414;28;20039;-81
2021/12/20 10:03:52;;;;;;;28.70;17.63;;;2.80;99.90;;;;;;4955798;28;20050;-81
2021/12/20 10:06:18;;;;;;;30.20;16.70;;;2.80;99.90;;;;;;4955322;28;20042;-81
2021/12/20 10:08:52;;;;;;;28.43;15.40;;;2.70;99.90;;;;;;4955191;28;20147;-81
2021/12/20 10:11:26;;;;;;;28.27;16.93;;;2.70;99.90;;;;;;5021403;28;20031;-81
2021/12/20 10:14:27;;;;;;;34.25;18.42;;;2.70;99.90;;;;;;4958644;28;20451;-81
2021/12/20 10:17:03;;;;;;;33.07;17.80;;;2.80;99.90;;;;;;4985712;28;20049;-81
2021/12/20 10:19:30;;;;;;;33.90;18.10;;;2.80;99.90;;;;;;4965271;28;20036;-81
2021/12/20 10:21:58;;;;;;;28.37;15.60;;;2.80;99.90;;;;;;4955838;28;20118;-81
2021/12/20 10:24:35;;;;;;;33.00;16.60;;;2.80;99.90;;;;;;4957202;28;20065;-81
2021/12/20 10:27:01;;;;;;;28.20;15.67;;;2.90;99.90;;;;;;4955239;28;20690;-81
2021/12/20 10:29:27;;;;;;;33.50;16.73;;;2.90;99.90;;;;;;4959081;28;20034;-81
2021/12/20 10:31:53;;;;;;;28.07;16.23;;;3.00;99.90;;;;;;5024953;28;20023;-80
2021/12/20 10:34:30;;;;;;;26.40;15.50;;;3.10;99.90;;;;;;4964370;28;20057;-81
2021/12/20 10:36:58;;;;;;;25.70;15.47;;;3.30;99.90;;;;;;4958223;28;20120;-81
2021/12/20 10:39:38;;;;;;;29.47;16.03;;;3.20;99.90;;;;;;5022569;28;20035;-81
2021/12/20 10:42:20;;;;;;;25.83;15.47;;;3.20;99.90;;;;;;4956830;28;20490;-80
2021/12/20 10:45:07;;;;;;;29.27;15.43;;;3.30;99.90;;;;;;4961757;28;20055;-80
2021/12/20 10:47:32;;;;;;;26.47;14.47;;;3.20;99.90;;;;;;5023849;28;20054;-81
2021/12/20 10:49:58;;;;;;;27.93;16.03;;;3.30;99.90;;;;;;4959746;28;20602;-80
2021/12/20 10:52:32;;;;;;;27.33;16.07;;;3.50;99.90;;;;;;5022525;28;20396;-75
2021/12/20 10:54:57;;;;;;;27.40;15.50;;;3.60;99.90;;;;;;5019868;28;20043;-81
2021/12/20 10:57:28;;;;;;;26.57;14.67;;;3.60;99.90;;;;;;4956951;28;20814;-78
2021/12/20 11:00:20;;;;;;;25.43;15.00;;;3.70;99.90;;;;;;4956057;28;20130;-81
2021/12/20 11:03:25;;;;;;;24.80;14.70;;;3.70;99.90;;;;;;4963403;28;20039;-76
2021/12/20 11:09:20;;;;;;;23.80;13.57;;;3.70;99.90;;;;;;4955768;28;20157;-81
2021/12/20 11:11:22;;;;;;;23.60;13.23;;;3.80;99.90;;;;;;4962170;28;20039;-81
2021/12/20 11:13:48;;;;;;;21.63;12.27;;;3.70;99.90;;;;;;4959267;28;20038;-81
2021/12/20 11:16:35;;;;;;;21.77;12.37;;;3.80;99.90;;;;;;4960558;28;20066;-81
2021/12/20 11:19:08;;;;;;;22.23;12.70;;;3.70;99.90;;;;;;4955753;28;20058;-81
2021/12/20 11:21:35;;;;;;;21.03;12.60;;;3.70;99.90;;;;;;4962083;28;20034;-78
2021/12/20 11:24:02;;;;;;;24.03;14.20;;;3.70;99.90;;;;;;4957574;28;20034;-78
2021/12/20 11:26:28;;;;;;;22.60;13.43;;;3.70;99.90;;;;;;4964620;28;20066;-81
2021/12/20 11:28:55;;;;;;;21.93;13.50;;;3.70;99.90;;;;;;5022996;28;20240;-81
2021/12/20 11:31:23;;;;;;;22.50;12.97;;;3.70;99.90;;;;;;4964897;28;20050;-78
2021/12/20 11:33:48;;;;;;;21.23;12.23;;;3.70;99.90;;;;;;4967942;28;20042;-78
2021/12/20 11:36:14;;;;;;;21.27;12.10;;;3.60;99.90;;;;;;4980042;28;20080;-78
2021/12/20 11:38:40;;;;;;;22.37;12.20;;;3.60;99.90;;;;;;4966144;28;20488;-78
2021/12/20 11:41:07;;;;;;;22.90;11.97;;;3.60;99.90;;;;;;5032990;28;20084;-78
2021/12/20 11:43:33;;;;;;;21.13;12.50;;;3.60;99.90;;;;;;4976268;28;20096;-78
2021/12/20 11:45:59;;;;;;;19.83;12.00;;;3.50;99.90;;;;;;4965908;28;20024;-78
2021/12/20 11:48:28;;;;;;;22.57;14.00;;;3.60;99.90;;;;;;4973931;28;20425;-78
2021/12/20 11:50:58;;;;;;;23.80;12.33;;;3.50;99.90;;;;;;5040528;28;20076;-78
2021/12/20 11:53:33;;;;;;;21.73;12.30;;;3.40;99.90;;;;;;5035039;28;20073;-80
2021/12/20 11:55:59;;;;;;;14.27;8.88;;;3.30;99.90;;;;;;4954792;28;20031;-81
2021/12/20 11:58:28;;;;;;;20.40;11.07;;;3.40;99.90;;;;;;4957803;28;20046;-81
2021/12/20 12:00:59;;;;;;;24.10;12.00;;;3.30;99.90;;;;;;5037119;28;20028;-81
2021/12/20 12:03:28;;;;;;;22.13;10.80;;;3.20;99.90;;;;;;4957147;28;20031;-81
2021/12/20 12:05:56;;;;;;;19.73;10.13;;;3.30;99.90;;;;;;5022423;28;20790;-81
2021/12/20 12:08:40;;;;;;;21.43;11.10;;;3.20;99.90;;;;;;4961669;28;20086;-81
2021/12/20 12:11:08;;;;;;;18.37;10.53;;;3.10;99.90;;;;;;4968348;28;20114;-81
2021/12/20 12:13:45;;;;;;;19.97;10.67;;;3.00;99.90;;;;;;4960502;28;20114;-81
2021/12/20 12:16:29;;;;;;;17.63;10.03;;;3.00;99.90;;;;;;4957837;28;20055;-80
2021/12/20 12:18:58;;;;;;;20.53;10.60;;;2.90;99.90;;;;;;4959148;28;20839;-81
2021/12/20 12:21:39;;;;;;;20.27;10.50;;;2.90;99.90;;;;;;4961557;28;20474;-81
2021/12/20 12:24:07;;;;;;;16.13;9.50;;;3.00;99.90;;;;;;4967470;28;20117;-81
2021/12/20 12:26:39;;;;;;;15.87;9.17;;;3.10;99.90;;;;;;4958168;28;20072;-80
2021/12/20 12:29:07;;;;;;;20.90;10.13;;;3.10;99.90;;;;;;5024017;28;20035;-80
2021/12/20 12:31:54;;;;;;;14.97;9.03;;;3.00;99.90;;;;;;4957394;28;20717;-80
2021/12/20 12:34:21;;;;;;;15.27;10.03;;;3.00;99.90;;;;;;4956352;28;20027;-80
2021/12/20 12:36:47;;;;;;;17.20;9.17;;;2.90;99.90;;;;;;4957240;28;20038;-81
2021/12/20 12:39:24;;;;;;;16.10;9.10;;;2.90;99.90;;;;;;4959824;28;20069;-81
2021/12/20 12:41:59;;;;;;;17.53;10.17;;;2.80;99.90;;;;;;4958313;28;20062;-81
2021/12/20 12:44:31;;;;;;;15.73;9.75;;;2.80;99.90;;;;;;4956442;28;20110;-81
2021/12/20 12:47:00;;;;;;;15.90;8.97;;;2.80;99.90;;;;;;4959157;28;20109;-80
2021/12/20 12:49:27;;;;;;;16.77;9.13;;;2.80;99.90;;;;;;4958501;28;20442;-81
2021/12/20 12:52:06;;;;;;;14.97;8.83;;;2.90;99.90;;;;;;4957090;28;20027;-80
2021/12/20 12:55:07;;;;;;;15.93;8.73;;;3.00;99.90;;;;;;4958295;28;20030;-77
2021/12/20 12:57:36;;;;;;;20.83;11.20;;;3.40;99.90;;;;;;4968758;28;20100;-77
2021/12/20 13:00:11;;;;;;;16.70;9.47;;;3.60;99.90;;;;;;4977047;28;20113;-77
2021/12/20 13:02:40;;;;;;;17.23;8.05;;;3.60;99.90;;;;;;4967052;28;20022;-77
2021/12/20 13:05:37;;;;;;;233.73;114.93;;;3.70;99.90;;;;;;5034459;28;20049;-76
2021/12/20 13:08:03;;;;;;;45.03;23.07;;;3.70;99.90;;;;;;5011564;28;20388;-76